sensor_id;sensor_type;location;lat;lon;timestamp;P1;durP1;ratioP1;P2;durP2;ratioP2
62880;SDS011;48969;49.934;8.596;2023-04-08T00:00:37;3.65;;;3.35;;
62880;SDS011;48969;49.934;8.596;2023-04-08T00:03:02;3.35;;;3.00;;
62880;SDS011;48969;49.934;8.596;2023-04-08T00:05:27;3.20;;;2.90;;
62880;SDS011;48969;49.934;8.596;2023-04-08T00:07:53;2.97;;;2.70;;
62880;SDS011;48969;49.934;8.596;2023-04-08T00:10:18;3.00;;;2.80;;
62880;SDS011;48969;49.934;8.596;2023-04-08T00:12:43;1.30;;;1.10;;
62880;SDS011;48969;49.934;8.596;2023-04-08T00:15:08;2.90;;;2.60;;
62880;SDS011;48969;49.934;8.596;2023-04-08T00:17:34;3.10;;;2.80;;
62880;SDS011;48969;49.934;8.596;2023-04-08T00:19:59;1.33;;;1.10;;
62880;SDS011;48969;49.934;8.596;2023-04-08T00:22:25;4.30;;;2.90;;
62880;SDS011;48969;49.934;8.596;2023-04-08T00:24:50;1.40;;;1.05;;
62880;SDS011;48969;49.934;8.596;2023-04-08T00:27:15;2.53;;;2.33;;
62880;SDS011;48969;49.934;8.596;2023-04-08T00:29:40;3.05;;;2.72;;
62880;SDS011;48969;49.934;8.596;2023-04-08T00:32:06;2.08;;;1.17;;
62880;SDS011;48969;49.934;8.596;2023-04-08T00:34:31;3.28;;;2.90;;
62880;SDS011;48969;49.934;8.596;2023-04-08T00:36:56;1.15;;;1.05;;
62880;SDS011;48969;49.934;8.596;2023-04-08T00:39:22;1.42;;;1.23;;
62880;SDS011;48969;49.934;8.596;2023-04-08T00:41:47;3.35;;;3.05;;
62880;SDS011;48969;49.934;8.596;2023-04-08T00:44:12;2.95;;;1.55;;
62880;SDS011;48969;49.934;8.596;2023-04-08T00:46:38;3.90;;;3.50;;
62880;SDS011;48969;49.934;8.596;2023-04-08T00:49:04;1.67;;;1.08;;
62880;SDS011;48969;49.934;8.596;2023-04-08T00:51:31;4.40;;;3.70;;
62880;SDS011;48969;49.934;8.596;2023-04-08T00:53:57;4.65;;;3.70;;
62880;SDS011;48969;49.934;8.596;2023-04-08T00:56:22;3.97;;;3.58;;
62880;SDS011;48969;49.934;8.596;2023-04-08T00:58:48;3.95;;;3.55;;
62880;SDS011;48969;49.934;8.596;2023-04-08T01:01:17;0.88;;;0.80;;
62880;SDS011;48969;49.934;8.596;2023-04-08T01:03:52;4.10;;;3.80;;
62880;SDS011;48969;49.934;8.596;2023-04-08T01:08:47;2.03;;;1.75;;
62880;SDS011;48969;49.934;8.596;2023-04-08T01:11:15;2.03;;;1.42;;
62880;SDS011;48969;49.934;8.596;2023-04-08T01:13:41;4.18;;;3.78;;
62880;SDS011;48969;49.934;8.596;2023-04-08T01:16:08;4.38;;;3.97;;
62880;SDS011;48969;49.934;8.596;2023-04-08T01:18:34;1.10;;;1.00;;
62880;SDS011;48969;49.934;8.596;2023-04-08T01:21:00;3.63;;;2.25;;
62880;SDS011;48969;49.934;8.596;2023-04-08T01:25:54;4.18;;;3.78;;
62880;SDS011;48969;49.934;8.596;2023-04-08T01:28:20;4.30;;;3.90;;
62880;SDS011;48969;49.934;8.596;2023-04-08T01:30:46;1.67;;;1.40;;
62880;SDS011;48969;49.934;8.596;2023-04-08T01:33:13;1.33;;;1.00;;
62880;SDS011;48969;49.934;8.596;2023-04-08T01:35:38;4.38;;;3.97;;
62880;SDS011;48969;49.934;8.596;2023-04-08T01:38:04;2.45;;;1.65;;
62880;SDS011;48969;49.934;8.596;2023-04-08T01:40:31;4.32;;;3.92;;
62880;SDS011;48969;49.934;8.596;2023-04-08T01:42:57;2.03;;;1.80;;
62880;SDS011;48969;49.934;8.596;2023-04-08T01:45:23;2.17;;;1.27;;
62880;SDS011;48969;49.934;8.596;2023-04-08T01:47:48;4.43;;;4.03;;
62880;SDS011;48969;49.934;8.596;2023-04-08T01:50:14;4.57;;;4.15;;
62880;SDS011;48969;49.934;8.596;2023-04-08T01:52:40;2.60;;;1.70;;
62880;SDS011;48969;49.934;8.596;2023-04-08T01:55:07;4.55;;;4.15;;
62880;SDS011;48969;49.934;8.596;2023-04-08T01:57:32;4.50;;;4.10;;
62880;SDS011;48969;49.934;8.596;2023-04-08T02:00:01;2.35;;;1.52;;
62880;SDS011;48969;49.934;8.596;2023-04-08T02:02:28;1.98;;;1.65;;
62880;SDS011;48969;49.934;8.596;2023-04-08T02:04:54;4.22;;;3.80;;
62880;SDS011;48969;49.934;8.596;2023-04-08T02:07:19;2.13;;;1.95;;
62880;SDS011;48969;49.934;8.596;2023-04-08T02:09:44;4.85;;;4.45;;
62880;SDS011;48969;49.934;8.596;2023-04-08T02:12:10;4.97;;;4.57;;
62880;SDS011;48969;49.934;8.596;2023-04-08T02:14:35;5.40;;;4.90;;
62880;SDS011;48969;49.934;8.596;2023-04-08T02:17:04;4.90;;;4.18;;
62880;SDS011;48969;49.934;8.596;2023-04-08T02:19:31;2.25;;;1.67;;
62880;SDS011;48969;49.934;8.596;2023-04-08T02:22:00;4.80;;;4.40;;
62880;SDS011;48969;49.934;8.596;2023-04-08T02:24:26;5.35;;;4.63;;
62880;SDS011;48969;49.934;8.596;2023-04-08T02:26:53;2.55;;;1.42;;
62880;SDS011;48969;49.934;8.596;2023-04-08T02:29:19;1.63;;;1.50;;
62880;SDS011;48969;49.934;8.596;2023-04-08T02:31:45;5.55;;;4.72;;
62880;SDS011;48969;49.934;8.596;2023-04-08T02:34:11;4.80;;;4.40;;
62880;SDS011;48969;49.934;8.596;2023-04-08T02:36:37;2.47;;;1.77;;
62880;SDS011;48969;49.934;8.596;2023-04-08T02:39:04;3.42;;;2.25;;
62880;SDS011;48969;49.934;8.596;2023-04-08T02:41:30;4.90;;;4.50;;
62880;SDS011;48969;49.934;8.596;2023-04-08T02:43:55;1.42;;;1.33;;
62880;SDS011;48969;49.934;8.596;2023-04-08T02:46:20;2.88;;;2.05;;
62880;SDS011;48969;49.934;8.596;2023-04-08T02:48:46;1.67;;;1.17;;
62880;SDS011;48969;49.934;8.596;2023-04-08T02:51:11;10.27;;;5.03;;
62880;SDS011;48969;49.934;8.596;2023-04-08T02:53:36;2.78;;;2.13;;
62880;SDS011;48969;49.934;8.596;2023-04-08T02:56:01;2.60;;;2.28;;
62880;SDS011;48969;49.934;8.596;2023-04-08T02:58:26;2.45;;;1.90;;
62880;SDS011;48969;49.934;8.596;2023-04-08T03:00:51;1.63;;;1.52;;
62880;SDS011;48969;49.934;8.596;2023-04-08T03:03:16;1.77;;;1.67;;
62880;SDS011;48969;49.934;8.596;2023-04-08T03:05:42;3.08;;;2.33;;
62880;SDS011;48969;49.934;8.596;2023-04-08T03:08:07;4.80;;;4.40;;
62880;SDS011;48969;49.934;8.596;2023-04-08T03:10:32;2.03;;;1.73;;
62880;SDS011;48969;49.934;8.596;2023-04-08T03:12:57;1.85;;;1.70;;
62880;SDS011;48969;49.934;8.596;2023-04-08T03:15:22;4.32;;;2.40;;
62880;SDS011;48969;49.934;8.596;2023-04-08T03:17:48;1.88;;;1.40;;
62880;SDS011;48969;49.934;8.596;2023-04-08T03:20:13;3.83;;;2.17;;
62880;SDS011;48969;49.934;8.596;2023-04-08T03:22:38;3.38;;;2.22;;
62880;SDS011;48969;49.934;8.596;2023-04-08T03:25:03;2.36;;;1.72;;
62880;SDS011;48969;49.934;8.596;2023-04-08T03:27:28;3.65;;;1.88;;
62880;SDS011;48969;49.934;8.596;2023-04-08T03:29:53;4.45;;;2.40;;
62880;SDS011;48969;49.934;8.596;2023-04-08T03:32:19;2.15;;;1.70;;
62880;SDS011;48969;49.934;8.596;2023-04-08T03:34:44;2.55;;;2.15;;
62880;SDS011;48969;49.934;8.596;2023-04-08T03:37:10;3.00;;;1.83;;
62880;SDS011;48969;49.934;8.596;2023-04-08T03:39:35;2.10;;;1.88;;
62880;SDS011;48969;49.934;8.596;2023-04-08T03:42:00;3.40;;;1.40;;
62880;SDS011;48969;49.934;8.596;2023-04-08T03:44:27;3.42;;;2.05;;
62880;SDS011;48969;49.934;8.596;2023-04-08T03:46:52;2.33;;;2.13;;
62880;SDS011;48969;49.934;8.596;2023-04-08T03:49:17;3.00;;;2.25;;
62880;SDS011;48969;49.934;8.596;2023-04-08T03:51:42;1.70;;;1.42;;
62880;SDS011;48969;49.934;8.596;2023-04-08T03:54:07;2.88;;;2.53;;
62880;SDS011;48969;49.934;8.596;2023-04-08T03:56:32;2.92;;;1.95;;
62880;SDS011;48969;49.934;8.596;2023-04-08T03:58:58;3.53;;;2.05;;
62880;SDS011;48969;49.934;8.596;2023-04-08T04:01:23;2.44;;;2.18;;
62880;SDS011;48969;49.934;8.596;2023-04-08T04:03:48;2.88;;;2.33;;
62880;SDS011;48969;49.934;8.596;2023-04-08T04:06:13;1.84;;;1.74;;
62880;SDS011;48969;49.934;8.596;2023-04-08T04:08:38;3.06;;;2.34;;
62880;SDS011;48969;49.934;8.596;2023-04-08T04:11:04;2.58;;;2.08;;
62880;SDS011;48969;49.934;8.596;2023-04-08T04:13:29;3.17;;;1.83;;
62880;SDS011;48969;49.934;8.596;2023-04-08T04:15:54;2.90;;;2.63;;
62880;SDS011;48969;49.934;8.596;2023-04-08T04:18:19;2.17;;;1.98;;
62880;SDS011;48969;49.934;8.596;2023-04-08T04:20:44;2.45;;;2.22;;
62880;SDS011;48969;49.934;8.596;2023-04-08T04:23:10;3.98;;;2.94;;
62880;SDS011;48969;49.934;8.596;2023-04-08T04:25:35;2.65;;;2.35;;
62880;SDS011;48969;49.934;8.596;2023-04-08T04:28:00;3.80;;;2.38;;
62880;SDS011;48969;49.934;8.596;2023-04-08T04:30:27;4.30;;;3.15;;
62880;SDS011;48969;49.934;8.596;2023-04-08T04:32:52;2.25;;;1.77;;
62880;SDS011;48969;49.934;8.596;2023-04-08T04:35:17;2.60;;;2.20;;
62880;SDS011;48969;49.934;8.596;2023-04-08T04:37:42;2.92;;;2.58;;
62880;SDS011;48969;49.934;8.596;2023-04-08T04:40:07;3.70;;;2.47;;
62880;SDS011;48969;49.934;8.596;2023-04-08T04:42:33;2.92;;;2.28;;
62880;SDS011;48969;49.934;8.596;2023-04-08T04:44:58;2.67;;;2.33;;
62880;SDS011;48969;49.934;8.596;2023-04-08T04:47:24;1.52;;;1.42;;
62880;SDS011;48969;49.934;8.596;2023-04-08T04:49:49;1.65;;;1.55;;
62880;SDS011;48969;49.934;8.596;2023-04-08T04:52:14;0.90;;;0.90;;
62880;SDS011;48969;49.934;8.596;2023-04-08T04:54:39;1.23;;;1.13;;
62880;SDS011;48969;49.934;8.596;2023-04-08T04:57:05;2.35;;;1.70;;
62880;SDS011;48969;49.934;8.596;2023-04-08T04:59:30;1.80;;;1.70;;
62880;SDS011;48969;49.934;8.596;2023-04-08T05:01:55;1.10;;;1.00;;
62880;SDS011;48969;49.934;8.596;2023-04-08T05:04:23;1.17;;;1.08;;
62880;SDS011;48969;49.934;8.596;2023-04-08T05:06:48;1.45;;;1.35;;
62880;SDS011;48969;49.934;8.596;2023-04-08T05:09:14;1.63;;;1.50;;
62880;SDS011;48969;49.934;8.596;2023-04-08T05:11:39;4.95;;;4.45;;
62880;SDS011;48969;49.934;8.596;2023-04-08T05:14:04;1.45;;;1.35;;
62880;SDS011;48969;49.934;8.596;2023-04-08T05:16:31;2.38;;;2.08;;
62880;SDS011;48969;49.934;8.596;2023-04-08T05:18:56;8.52;;;1.77;;
62880;SDS011;48969;49.934;8.596;2023-04-08T05:21:21;3.08;;;2.22;;
62880;SDS011;48969;49.934;8.596;2023-04-08T05:23:46;2.30;;;1.25;;
62880;SDS011;48969;49.934;8.596;2023-04-08T05:26:11;1.70;;;1.48;;
62880;SDS011;48969;49.934;8.596;2023-04-08T05:28:36;1.67;;;1.58;;
62880;SDS011;48969;49.934;8.596;2023-04-08T05:31:02;6.82;;;2.15;;
62880;SDS011;48969;49.934;8.596;2023-04-08T05:33:27;1.90;;;1.42;;
62880;SDS011;48969;49.934;8.596;2023-04-08T05:35:52;5.30;;;2.40;;
62880;SDS011;48969;49.934;8.596;2023-04-08T05:38:17;1.83;;;1.67;;
62880;SDS011;48969;49.934;8.596;2023-04-08T05:40:42;1.95;;;1.73;;
62880;SDS011;48969;49.934;8.596;2023-04-08T05:43:08;3.42;;;2.35;;
62880;SDS011;48969;49.934;8.596;2023-04-08T05:45:33;2.53;;;1.77;;
62880;SDS011;48969;49.934;8.596;2023-04-08T05:47:58;2.58;;;1.70;;
62880;SDS011;48969;49.934;8.596;2023-04-08T05:50:23;1.55;;;1.27;;
62880;SDS011;48969;49.934;8.596;2023-04-08T05:52:48;2.88;;;2.67;;
62880;SDS011;48969;49.934;8.596;2023-04-08T05:55:14;3.50;;;3.13;;
62880;SDS011;48969;49.934;8.596;2023-04-08T05:57:40;3.80;;;2.55;;
62880;SDS011;48969;49.934;8.596;2023-04-08T06:00:05;3.15;;;2.28;;
62880;SDS011;48969;49.934;8.596;2023-04-08T06:02:32;2.25;;;2.05;;
62880;SDS011;48969;49.934;8.596;2023-04-08T06:04:57;4.32;;;3.25;;
62880;SDS011;48969;49.934;8.596;2023-04-08T06:07:22;7.78;;;5.00;;
62880;SDS011;48969;49.934;8.596;2023-04-08T06:09:47;11.10;;;4.63;;
62880;SDS011;48969;49.934;8.596;2023-04-08T06:12:12;5.45;;;3.45;;
62880;SDS011;48969;49.934;8.596;2023-04-08T06:14:38;7.60;;;4.25;;
62880;SDS011;48969;49.934;8.596;2023-04-08T06:17:03;5.78;;;3.70;;
62880;SDS011;48969;49.934;8.596;2023-04-08T06:19:28;8.52;;;3.08;;
62880;SDS011;48969;49.934;8.596;2023-04-08T06:21:53;3.95;;;2.78;;
62880;SDS011;48969;49.934;8.596;2023-04-08T06:24:23;4.45;;;3.85;;
62880;SDS011;48969;49.934;8.596;2023-04-08T06:26:48;4.60;;;3.40;;
62880;SDS011;48969;49.934;8.596;2023-04-08T06:29:13;2.70;;;2.33;;
62880;SDS011;48969;49.934;8.596;2023-04-08T06:31:38;3.42;;;2.97;;
62880;SDS011;48969;49.934;8.596;2023-04-08T06:34:03;6.70;;;4.93;;
62880;SDS011;48969;49.934;8.596;2023-04-08T06:36:28;4.88;;;2.95;;
62880;SDS011;48969;49.934;8.596;2023-04-08T06:38:54;5.60;;;4.04;;
62880;SDS011;48969;49.934;8.596;2023-04-08T06:41:19;6.07;;;4.18;;
62880;SDS011;48969;49.934;8.596;2023-04-08T06:43:44;5.42;;;4.00;;
62880;SDS011;48969;49.934;8.596;2023-04-08T06:46:09;6.25;;;4.72;;
62880;SDS011;48969;49.934;8.596;2023-04-08T06:48:35;11.57;;;4.65;;
62880;SDS011;48969;49.934;8.596;2023-04-08T06:51:01;6.38;;;4.35;;
62880;SDS011;48969;49.934;8.596;2023-04-08T06:53:26;7.30;;;4.95;;
62880;SDS011;48969;49.934;8.596;2023-04-08T06:55:53;6.93;;;5.25;;
62880;SDS011;48969;49.934;8.596;2023-04-08T06:58:18;7.63;;;4.75;;
62880;SDS011;48969;49.934;8.596;2023-04-08T07:00:43;9.45;;;6.80;;
62880;SDS011;48969;49.934;8.596;2023-04-08T07:03:09;6.68;;;5.95;;
62880;SDS011;48969;49.934;8.596;2023-04-08T07:05:35;9.20;;;6.45;;
62880;SDS011;48969;49.934;8.596;2023-04-08T07:08:01;10.15;;;5.75;;
62880;SDS011;48969;49.934;8.596;2023-04-08T07:10:26;8.73;;;6.85;;
62880;SDS011;48969;49.934;8.596;2023-04-08T07:12:52;10.13;;;5.55;;
62880;SDS011;48969;49.934;8.596;2023-04-08T07:15:17;19.70;;;17.85;;
62880;SDS011;48969;49.934;8.596;2023-04-08T07:17:42;10.45;;;7.32;;
62880;SDS011;48969;49.934;8.596;2023-04-08T07:20:08;10.93;;;8.07;;
62880;SDS011;48969;49.934;8.596;2023-04-08T07:22:33;8.55;;;5.60;;
62880;SDS011;48969;49.934;8.596;2023-04-08T07:24:58;9.25;;;6.43;;
62880;SDS011;48969;49.934;8.596;2023-04-08T07:27:23;11.88;;;7.30;;
62880;SDS011;48969;49.934;8.596;2023-04-08T07:29:52;21.52;;;19.45;;
62880;SDS011;48969;49.934;8.596;2023-04-08T07:32:18;12.20;;;7.65;;
62880;SDS011;48969;49.934;8.596;2023-04-08T07:34:43;14.30;;;9.43;;
62880;SDS011;48969;49.934;8.596;2023-04-08T07:37:08;12.68;;;8.75;;
62880;SDS011;48969;49.934;8.596;2023-04-08T07:39:34;21.92;;;19.33;;
62880;SDS011;48969;49.934;8.596;2023-04-08T07:41:59;13.90;;;9.25;;
62880;SDS011;48969;49.934;8.596;2023-04-08T07:44:24;12.23;;;8.07;;
62880;SDS011;48969;49.934;8.596;2023-04-08T07:46:50;21.33;;;19.33;;
62880;SDS011;48969;49.934;8.596;2023-04-08T07:49:15;9.30;;;5.90;;
62880;SDS011;48969;49.934;8.596;2023-04-08T07:51:40;14.73;;;8.20;;
62880;SDS011;48969;49.934;8.596;2023-04-08T07:54:06;12.20;;;7.28;;
62880;SDS011;48969;49.934;8.596;2023-04-08T07:56:31;10.07;;;6.07;;
62880;SDS011;48969;49.934;8.596;2023-04-08T07:58:56;20.08;;;18.08;;
62880;SDS011;48969;49.934;8.596;2023-04-08T08:01:22;12.32;;;9.10;;
62880;SDS011;48969;49.934;8.596;2023-04-08T08:03:50;8.45;;;6.95;;
62880;SDS011;48969;49.934;8.596;2023-04-08T08:06:15;19.88;;;18.08;;
62880;SDS011;48969;49.934;8.596;2023-04-08T08:08:41;6.00;;;5.35;;
62880;SDS011;48969;49.934;8.596;2023-04-08T08:11:06;21.65;;;19.33;;
62880;SDS011;48969;49.934;8.596;2023-04-08T08:13:32;6.70;;;4.88;;
62880;SDS011;48969;49.934;8.596;2023-04-08T08:15:57;8.73;;;5.32;;
62880;SDS011;48969;49.934;8.596;2023-04-08T08:18:22;10.10;;;7.35;;
62880;SDS011;48969;49.934;8.596;2023-04-08T08:20:48;9.95;;;7.55;;
62880;SDS011;48969;49.934;8.596;2023-04-08T08:23:13;19.13;;;17.27;;
62880;SDS011;48969;49.934;8.596;2023-04-08T08:25:38;18.70;;;16.70;;
62880;SDS011;48969;49.934;8.596;2023-04-08T08:28:03;8.27;;;5.80;;
62880;SDS011;48969;49.934;8.596;2023-04-08T08:30:29;17.67;;;16.05;;
62880;SDS011;48969;49.934;8.596;2023-04-08T08:32:54;10.30;;;7.05;;
62880;SDS011;48969;49.934;8.596;2023-04-08T08:35:22;9.18;;;7.03;;
62880;SDS011;48969;49.934;8.596;2023-04-08T08:37:48;18.75;;;16.95;;
62880;SDS011;48969;49.934;8.596;2023-04-08T08:40:13;16.10;;;6.47;;
62880;SDS011;48969;49.934;8.596;2023-04-08T08:42:39;18.65;;;16.90;;
62880;SDS011;48969;49.934;8.596;2023-04-08T08:45:04;11.90;;;8.38;;
62880;SDS011;48969;49.934;8.596;2023-04-08T08:47:31;8.15;;;6.07;;
62880;SDS011;48969;49.934;8.596;2023-04-08T08:49:56;19.33;;;17.52;;
62880;SDS011;48969;49.934;8.596;2023-04-08T08:52:21;11.63;;;7.07;;
62880;SDS011;48969;49.934;8.596;2023-04-08T08:54:47;44.25;;;25.10;;
62880;SDS011;48969;49.934;8.596;2023-04-08T08:57:19;10.05;;;6.22;;
62880;SDS011;48969;49.934;8.596;2023-04-08T08:59:45;9.50;;;5.27;;
62880;SDS011;48969;49.934;8.596;2023-04-08T09:02:26;19.13;;;17.42;;
62880;SDS011;48969;49.934;8.596;2023-04-08T09:04:55;9.48;;;5.70;;
62880;SDS011;48969;49.934;8.596;2023-04-08T09:07:23;11.48;;;7.10;;
62880;SDS011;48969;49.934;8.596;2023-04-08T09:09:49;17.45;;;15.85;;
62880;SDS011;48969;49.934;8.596;2023-04-08T09:12:15;8.75;;;6.10;;
62880;SDS011;48969;49.934;8.596;2023-04-08T09:14:40;18.80;;;17.00;;
62880;SDS011;48969;49.934;8.596;2023-04-08T09:17:05;10.00;;;5.95;;
62880;SDS011;48969;49.934;8.596;2023-04-08T09:19:30;11.10;;;6.45;;
62880;SDS011;48969;49.934;8.596;2023-04-08T09:24:33;15.05;;;13.65;;
62880;SDS011;48969;49.934;8.596;2023-04-08T09:26:58;14.38;;;12.90;;
62880;SDS011;48969;49.934;8.596;2023-04-08T09:29:24;14.20;;;12.80;;
62880;SDS011;48969;49.934;8.596;2023-04-08T09:31:54;14.25;;;12.88;;
62880;SDS011;48969;49.934;8.596;2023-04-08T09:34:22;14.90;;;13.25;;
62880;SDS011;48969;49.934;8.596;2023-04-08T09:36:48;15.40;;;13.80;;
62880;SDS011;48969;49.934;8.596;2023-04-08T09:39:14;15.63;;;14.13;;
62880;SDS011;48969;49.934;8.596;2023-04-08T09:41:40;14.40;;;12.98;;
62880;SDS011;48969;49.934;8.596;2023-04-08T09:44:07;13.40;;;12.18;;
62880;SDS011;48969;49.934;8.596;2023-04-08T09:57:12;14.48;;;12.48;;
62880;SDS011;48969;49.934;8.596;2023-04-08T09:59:37;13.25;;;11.95;;
62880;SDS011;48969;49.934;8.596;2023-04-08T10:02:08;13.07;;;11.77;;
62880;SDS011;48969;49.934;8.596;2023-04-08T10:04:34;13.10;;;11.60;;
62880;SDS011;48969;49.934;8.596;2023-04-08T10:07:02;4.72;;;2.97;;
62880;SDS011;48969;49.934;8.596;2023-04-08T10:09:28;12.70;;;11.38;;
62880;SDS011;48969;49.934;8.596;2023-04-08T10:11:53;12.43;;;11.23;;
62880;SDS011;48969;49.934;8.596;2023-04-08T10:14:19;12.85;;;10.75;;
62880;SDS011;48969;49.934;8.596;2023-04-08T10:16:46;12.43;;;11.13;;
62880;SDS011;48969;49.934;8.596;2023-04-08T10:21:56;11.15;;;10.05;;
62880;SDS011;48969;49.934;8.596;2023-04-08T10:24:21;12.95;;;10.73;;
62880;SDS011;48969;49.934;8.596;2023-04-08T10:26:49;11.48;;;10.38;;
62880;SDS011;48969;49.934;8.596;2023-04-08T10:31:43;11.15;;;9.00;;
62880;SDS011;48969;49.934;8.596;2023-04-08T10:34:15;10.80;;;9.70;;
62880;SDS011;48969;49.934;8.596;2023-04-08T10:36:41;10.68;;;9.57;;
62880;SDS011;48969;49.934;8.596;2023-04-08T10:39:06;12.30;;;9.48;;
62880;SDS011;48969;49.934;8.596;2023-04-08T10:41:32;10.88;;;9.50;;
62880;SDS011;48969;49.934;8.596;2023-04-08T10:43:57;12.07;;;10.07;;
62880;SDS011;48969;49.934;8.596;2023-04-08T10:46:22;11.20;;;8.70;;
62880;SDS011;48969;49.934;8.596;2023-04-08T10:48:58;11.65;;;9.65;;
62880;SDS011;48969;49.934;8.596;2023-04-08T10:51:23;14.40;;;9.70;;
62880;SDS011;48969;49.934;8.596;2023-04-08T10:53:48;11.40;;;10.20;;
62880;SDS011;48969;49.934;8.596;2023-04-08T10:56:14;10.88;;;9.48;;
62880;SDS011;48969;49.934;8.596;2023-04-08T10:58:48;6.50;;;3.50;;
62880;SDS011;48969;49.934;8.596;2023-04-08T11:01:14;10.93;;;9.75;;
62880;SDS011;48969;49.934;8.596;2023-04-08T11:03:40;11.32;;;10.10;;
62880;SDS011;48969;49.934;8.596;2023-04-08T11:06:06;11.68;;;10.50;;
62880;SDS011;48969;49.934;8.596;2023-04-08T11:08:32;11.35;;;9.88;;
62880;SDS011;48969;49.934;8.596;2023-04-08T11:10:58;12.88;;;10.43;;
62880;SDS011;48969;49.934;8.596;2023-04-08T11:13:25;12.13;;;10.82;;
62880;SDS011;48969;49.934;8.596;2023-04-08T11:15:51;12.73;;;11.23;;
62880;SDS011;48969;49.934;8.596;2023-04-08T11:18:16;12.05;;;10.85;;
62880;SDS011;48969;49.934;8.596;2023-04-08T11:20:42;12.65;;;11.00;;
62880;SDS011;48969;49.934;8.596;2023-04-08T11:23:14;11.60;;;10.50;;
62880;SDS011;48969;49.934;8.596;2023-04-08T11:25:40;11.85;;;10.57;;
62880;SDS011;48969;49.934;8.596;2023-04-08T11:28:05;12.63;;;10.00;;
62880;SDS011;48969;49.934;8.596;2023-04-08T11:30:31;11.88;;;10.63;;
62880;SDS011;48969;49.934;8.596;2023-04-08T11:32:56;10.93;;;9.35;;
62880;SDS011;48969;49.934;8.596;2023-04-08T11:35:21;10.50;;;8.90;;
62880;SDS011;48969;49.934;8.596;2023-04-08T11:37:47;9.48;;;8.52;;
62880;SDS011;48969;49.934;8.596;2023-04-08T11:40:18;10.73;;;9.20;;
62880;SDS011;48969;49.934;8.596;2023-04-08T11:42:43;10.48;;;8.82;;
62880;SDS011;48969;49.934;8.596;2023-04-08T11:45:12;11.75;;;9.32;;
62880;SDS011;48969;49.934;8.596;2023-04-08T11:47:38;9.75;;;8.30;;
62880;SDS011;48969;49.934;8.596;2023-04-08T11:50:04;15.13;;;8.73;;
62880;SDS011;48969;49.934;8.596;2023-04-08T11:52:48;10.57;;;9.25;;
62880;SDS011;48969;49.934;8.596;2023-04-08T11:55:30;8.13;;;6.97;;
62880;SDS011;48969;49.934;8.596;2023-04-08T11:57:56;9.93;;;8.30;;
62880;SDS011;48969;49.934;8.596;2023-04-08T12:00:25;11.07;;;8.60;;
62880;SDS011;48969;49.934;8.596;2023-04-08T12:02:52;10.77;;;8.40;;
62880;SDS011;48969;49.934;8.596;2023-04-08T12:05:17;9.25;;;7.78;;
62880;SDS011;48969;49.934;8.596;2023-04-08T12:07:42;10.48;;;7.93;;
62880;SDS011;48969;49.934;8.596;2023-04-08T12:10:08;9.77;;;7.55;;
62880;SDS011;48969;49.934;8.596;2023-04-08T12:12:33;9.38;;;7.85;;
62880;SDS011;48969;49.934;8.596;2023-04-08T12:14:59;9.82;;;7.47;;
62880;SDS011;48969;49.934;8.596;2023-04-08T12:17:25;8.48;;;7.57;;
62880;SDS011;48969;49.934;8.596;2023-04-08T12:19:50;8.43;;;7.50;;
62880;SDS011;48969;49.934;8.596;2023-04-08T12:22:15;9.82;;;7.60;;
62880;SDS011;48969;49.934;8.596;2023-04-08T12:24:40;9.27;;;7.70;;
62880;SDS011;48969;49.934;8.596;2023-04-08T12:27:05;9.10;;;7.35;;
62880;SDS011;48969;49.934;8.596;2023-04-08T12:29:31;8.35;;;7.35;;
62880;SDS011;48969;49.934;8.596;2023-04-08T12:31:56;9.00;;;7.70;;
62880;SDS011;48969;49.934;8.596;2023-04-08T12:34:22;10.43;;;8.48;;
62880;SDS011;48969;49.934;8.596;2023-04-08T12:36:47;10.10;;;8.25;;
62880;SDS011;48969;49.934;8.596;2023-04-08T12:39:13;10.23;;;7.95;;
62880;SDS011;48969;49.934;8.596;2023-04-08T12:41:39;8.75;;;7.93;;
62880;SDS011;48969;49.934;8.596;2023-04-08T12:44:04;10.55;;;9.05;;
62880;SDS011;48969;49.934;8.596;2023-04-08T12:46:29;9.38;;;7.78;;
62880;SDS011;48969;49.934;8.596;2023-04-08T12:48:54;9.60;;;8.10;;
62880;SDS011;48969;49.934;8.596;2023-04-08T12:51:19;9.63;;;8.60;;
62880;SDS011;48969;49.934;8.596;2023-04-08T12:53:45;10.23;;;8.43;;
62880;SDS011;48969;49.934;8.596;2023-04-08T12:56:10;9.57;;;8.00;;
62880;SDS011;48969;49.934;8.596;2023-04-08T12:58:35;9.05;;;8.15;;
62880;SDS011;48969;49.934;8.596;2023-04-08T13:01:01;9.40;;;8.18;;
62880;SDS011;48969;49.934;8.596;2023-04-08T13:03:26;7.45;;;6.65;;
62880;SDS011;48969;49.934;8.596;2023-04-08T13:05:54;9.60;;;7.78;;
62880;SDS011;48969;49.934;8.596;2023-04-08T13:08:20;8.80;;;7.75;;
62880;SDS011;48969;49.934;8.596;2023-04-08T13:10:45;8.80;;;7.05;;
62880;SDS011;48969;49.934;8.596;2023-04-08T13:13:11;8.88;;;7.95;;
62880;SDS011;48969;49.934;8.596;2023-04-08T13:15:38;9.65;;;8.65;;
62880;SDS011;48969;49.934;8.596;2023-04-08T13:18:03;10.27;;;8.52;;
62880;SDS011;48969;49.934;8.596;2023-04-08T13:20:28;11.57;;;9.32;;
62880;SDS011;48969;49.934;8.596;2023-04-08T13:22:54;9.02;;;8.13;;
62880;SDS011;48969;49.934;8.596;2023-04-08T13:25:19;10.02;;;9.02;;
62880;SDS011;48969;49.934;8.596;2023-04-08T13:27:44;11.13;;;9.65;;
62880;SDS011;48969;49.934;8.596;2023-04-08T13:30:10;10.60;;;9.18;;
62880;SDS011;48969;49.934;8.596;2023-04-08T13:32:35;10.38;;;9.20;;
62880;SDS011;48969;49.934;8.596;2023-04-08T13:35:01;10.77;;;8.50;;
62880;SDS011;48969;49.934;8.596;2023-04-08T13:37:29;10.57;;;8.65;;
62880;SDS011;48969;49.934;8.596;2023-04-08T13:39:54;10.50;;;9.18;;
62880;SDS011;48969;49.934;8.596;2023-04-08T13:42:20;9.63;;;8.65;;
62880;SDS011;48969;49.934;8.596;2023-04-08T13:44:46;10.00;;;8.05;;
62880;SDS011;48969;49.934;8.596;2023-04-08T13:47:11;8.90;;;7.97;;
62880;SDS011;48969;49.934;8.596;2023-04-08T13:49:36;8.55;;;7.65;;
62880;SDS011;48969;49.934;8.596;2023-04-08T13:52:01;10.48;;;9.30;;
62880;SDS011;48969;49.934;8.596;2023-04-08T13:54:27;10.48;;;9.25;;
62880;SDS011;48969;49.934;8.596;2023-04-08T13:56:52;9.93;;;8.57;;
62880;SDS011;48969;49.934;8.596;2023-04-08T13:59:17;11.57;;;9.77;;
62880;SDS011;48969;49.934;8.596;2023-04-08T14:01:42;11.88;;;9.98;;
62880;SDS011;48969;49.934;8.596;2023-04-08T14:04:07;10.57;;;9.50;;
62880;SDS011;48969;49.934;8.596;2023-04-08T14:06:32;10.30;;;9.20;;
62880;SDS011;48969;49.934;8.596;2023-04-08T14:08:58;10.48;;;9.27;;
62880;SDS011;48969;49.934;8.596;2023-04-08T14:11:23;9.82;;;8.82;;
62880;SDS011;48969;49.934;8.596;2023-04-08T14:13:50;10.27;;;8.23;;
62880;SDS011;48969;49.934;8.596;2023-04-08T14:16:15;11.15;;;9.88;;
62880;SDS011;48969;49.934;8.596;2023-04-08T14:18:40;9.93;;;8.77;;
62880;SDS011;48969;49.934;8.596;2023-04-08T14:21:06;10.15;;;9.15;;
62880;SDS011;48969;49.934;8.596;2023-04-08T14:23:31;12.75;;;10.52;;
62880;SDS011;48969;49.934;8.596;2023-04-08T14:25:56;11.73;;;10.52;;
62880;SDS011;48969;49.934;8.596;2023-04-08T14:28:22;11.70;;;9.27;;
62880;SDS011;48969;49.934;8.596;2023-04-08T14:30:47;11.23;;;10.13;;
62880;SDS011;48969;49.934;8.596;2023-04-08T14:33:12;11.27;;;10.18;;
62880;SDS011;48969;49.934;8.596;2023-04-08T14:35:37;11.05;;;9.82;;
62880;SDS011;48969;49.934;8.596;2023-04-08T14:38:03;10.38;;;9.38;;
62880;SDS011;48969;49.934;8.596;2023-04-08T14:40:28;10.63;;;9.57;;
62880;SDS011;48969;49.934;8.596;2023-04-08T14:42:53;10.68;;;9.57;;
62880;SDS011;48969;49.934;8.596;2023-04-08T14:45:18;10.98;;;9.82;;
62880;SDS011;48969;49.934;8.596;2023-04-08T14:47:43;10.30;;;9.25;;
62880;SDS011;48969;49.934;8.596;2023-04-08T14:50:10;10.77;;;9.68;;
62880;SDS011;48969;49.934;8.596;2023-04-08T14:52:35;11.98;;;10.35;;
62880;SDS011;48969;49.934;8.596;2023-04-08T14:55:00;12.18;;;10.88;;